Time;durP1;ratioP1;P1;durP2;ratioP2;P2;SDS_P1;SDS_P2;PMS_P1;PMS_P2;Temp;Humidity;BMP_temperature;BMP_pressure;BME280_temperature;BME280_humidity;BME280_pressure;Samples;Min_cycle;Max_cycle;Signal;HPM_P1;HPM_P2
2023/01/15 00:04:38;;;;;;;1.90;1.20;;;;;;;17.11;58.57;95669.69;10372908;28;20284;-23
2023/01/15 00:09:38;;;;;;;1.70;1.10;;;;;;;17.11;59.64;95670.56;10369639;28;20281;-23
2023/01/15 00:14:39;;;;;;;1.90;1.20;;;;;;;17.11;59.44;95639.34;10366141;28;20034;-23
2023/01/15 00:19:39;;;;;;;4.33;1.57;;;;;;;17.10;59.41;95646.13;10367637;28;20030;-23
2023/01/15 00:30:16;;;;;;;4.60;1.20;;;;;;;17.08;59.63;95639.41;10340879;28;20375;-23
2023/01/15 00:35:21;;;;;;;1.98;0.80;;;;;;;17.06;59.49;95629.31;10367388;28;20502;-23
2023/01/15 00:40:22;;;;;;;2.60;1.20;;;;;;;17.09;59.98;95625.91;10365026;28;20037;-23
2023/01/15 00:45:23;;;;;;;3.50;1.40;;;;;;;17.08;60.34;95619.19;10362810;28;20557;-23
2023/01/15 00:50:23;;;;;;;3.10;1.25;;;;;;;17.09;59.65;95631.78;10365250;28;20083;-23
2023/01/15 00:55:24;;;;;;;2.60;1.60;;;;;;;17.09;59.62;95616.59;10372365;28;20117;-23
2023/01/15 01:00:24;;;;;;;4.88;1.40;;;;;;;17.09;59.00;95619.13;10365021;28;20086;-23
2023/01/15 01:05:25;;;;;;;4.80;2.20;;;;;;;17.08;59.31;95604.81;10370012;28;20091;-23
2023/01/15 01:10:26;;;;;;;2.10;1.17;;;;;;;17.06;59.74;95593.09;10372626;28;20555;-22
2023/01/15 01:15:26;;;;;;;6.15;1.92;;;;;;;17.10;59.85;95607.34;10365206;28;20034;-23
2023/01/15 01:20:27;;;;;;;4.53;2.10;;;;;;;17.09;59.21;95603.16;10373953;28;20022;-23
2023/01/15 01:25:28;;;;;;;3.75;1.40;;;;;;;17.08;59.70;95598.94;10361671;28;20045;-23
2023/01/15 01:30:28;;;;;;;3.20;1.13;;;;;;;17.08;59.76;95588.84;10364111;28;20030;-23
2023/01/15 01:35:28;;;;;;;3.07;1.33;;;;;;;17.08;59.87;95616.66;10379407;28;20281;-23
2023/01/15 01:40:29;;;;;;;2.77;1.13;;;;;;;17.07;59.59;95598.09;10371778;28;20033;-23
2023/01/15 01:45:32;;;;;;;2.03;1.10;;;;;;;17.06;60.11;95610.78;10368110;28;20044;-23
2023/01/15 01:50:34;;;;;;;4.95;1.27;;;;;;;17.05;60.61;95569.47;10370612;28;20066;-23
2023/01/15 01:55:36;;;;;;;4.50;1.40;;;;;;;17.09;60.20;95581.22;10371853;28;20033;-23
2023/01/15 02:00:41;;;;;;;3.95;1.20;;;;;;;17.07;59.87;95552.59;10371069;28;20036;-23
2023/01/15 02:05:50;;;;;;;3.30;1.38;;;;;;;17.05;59.72;95578.75;10372549;28;20065;-23
2023/01/15 02:10:54;;;;;;;1.60;1.10;;;;;;;17.08;59.90;95584.59;10369800;28;20501;-23
2023/01/15 02:16:38;;;;;;;4.35;1.40;;;;;;;17.07;59.99;95566.94;10365835;28;20125;-24
2023/01/15 02:21:51;;;;;;;5.03;1.15;;;;;;;17.07;59.86;95582.09;10369163;28;20026;-23
2023/01/15 02:27:19;;;;;;;1.98;0.82;;;;;;;17.06;59.96;95590.56;10356160;28;20054;-24
2023/01/15 02:32:44;;;;;;;2.30;0.88;;;;;;;17.02;60.36;95561.94;10366090;28;20037;-23
2023/01/15 02:37:49;;;;;;;2.25;1.00;;;;;;;17.04;59.95;95552.63;10372483;28;20026;-23
2023/01/15 02:42:53;;;;;;;4.40;1.13;;;;;;;17.05;60.09;95538.28;10367990;28;20413;-23
2023/01/15 02:48:01;;;;;;;2.25;1.05;;;;;;;17.03;60.07;95534.94;10368146;28;20513;-23
2023/01/15 02:53:06;;;;;;;10.25;2.42;;;;;;;17.07;60.29;95536.59;10367400;28;20047;-24
2023/01/15 02:58:14;;;;;;;4.47;1.10;;;;;;;17.07;60.59;95547.53;10357241;28;20430;-23
2023/01/15 03:03:24;;;;;;;3.03;1.08;;;;;;;17.06;59.99;95550.91;10367889;28;20065;-23
2023/01/15 03:08:26;;;;;;;2.47;1.00;;;;;;;17.05;60.27;95543.34;10384462;28;20121;-23
2023/01/15 03:14:28;;;;;;;2.28;1.00;;;;;;;17.05;59.88;95561.03;10364333;28;20033;-23
2023/01/15 03:19:35;;;;;;;2.67;1.00;;;;;;;17.06;60.35;95537.44;10333183;28;20041;-23
2023/01/15 03:24:50;;;;;;;3.17;0.75;;;;;;;17.05;60.14;95550.94;10377702;28;20097;-23
2023/01/15 03:30:19;;;;;;;2.92;1.10;;;;;;;17.05;60.40;95554.31;10373454;28;20063;-23
2023/01/15 03:35:44;;;;;;;5.97;1.20;;;;;;;17.02;60.07;95538.34;10373074;28;20075;-23
2023/01/15 03:41:07;;;;;;;2.13;1.40;;;;;;;17.03;60.59;95514.72;10372736;28;20041;-23
2023/01/15 03:46:22;;;;;;;2.47;1.00;;;;;;;16.99;60.28;95530.81;10366971;28;20123;-23
2023/01/15 03:51:59;;;;;;;3.38;0.88;;;;;;;17.02;60.37;95508.00;10370315;28;20037;-23
2023/01/15 03:57:56;;;;;;;2.75;0.93;;;;;;;17.02;60.46;95513.06;10380548;28;20042;-23
2023/01/15 04:03:00;;;;;;;1.77;1.00;;;;;;;17.06;60.61;95504.59;10271840;28;20153;-23
2023/01/15 04:08:05;;;;;;;2.25;0.80;;;;;;;17.02;60.77;95487.78;10373708;28;20034;-23
2023/01/15 04:13:06;;;;;;;2.92;1.05;;;;;;;17.06;60.49;95479.31;10371621;28;20041;-24
2023/01/15 04:18:06;;;;;;;3.72;0.93;;;;;;;17.06;60.57;95484.34;10367585;28;20026;-23
2023/01/15 04:23:08;;;;;;;3.35;1.17;;;;;;;17.02;60.73;95488.63;10357439;28;20040;-23
2023/01/15 04:28:08;;;;;;;2.63;1.00;;;;;;;17.02;60.40;95486.09;10356684;28;20036;-23
2023/01/15 04:33:10;;;;;;;3.67;1.30;;;;;;;17.03;60.28;95469.22;10363314;28;20042;-23
2023/01/15 04:38:10;;;;;;;1.92;1.00;;;;;;;17.03;60.76;95467.53;10376159;28;20030;-23
2023/01/15 04:48:31;;;;;;;3.47;0.98;;;;;;;17.04;60.28;95473.41;10371076;28;20100;-23
2023/01/15 04:53:32;;;;;;;2.57;1.03;;;;;;;17.04;60.66;95479.31;10373219;28;20452;-23
2023/01/15 04:58:33;;;;;;;3.13;0.90;;;;;;;17.05;60.30;95472.53;10367198;28;20422;-23
2023/01/15 05:03:33;;;;;;;3.70;1.00;;;;;;;17.02;60.30;95478.50;10378677;28;20051;-23
2023/01/15 05:08:34;;;;;;;3.13;1.10;;;;;;;17.06;60.53;95472.53;10367820;28;20087;-23
2023/01/15 05:13:34;;;;;;;2.17;1.20;;;;;;;17.11;60.59;95467.41;10382017;28;20113;-24
2023/01/15 05:18:35;;;;;;;2.47;1.07;;;;;;;17.15;59.76;95462.28;10382566;28;20026;-24
2023/01/15 05:23:35;;;;;;;2.47;0.80;;;;;;;17.12;60.02;95461.50;10369246;28;20301;-23
2023/01/15 05:28:35;;;;;;;4.73;1.37;;;;;;;17.11;60.26;95483.44;10375657;28;20113;-23
2023/01/15 05:33:37;;;;;;;2.38;0.80;;;;;;;17.10;60.07;95466.59;10366738;28;20417;-23
2023/01/15 05:38:38;;;;;;;3.17;0.98;;;;;;;17.11;60.22;95460.66;10370361;28;20022;-23
2023/01/15 05:43:38;;;;;;;1.75;0.70;;;;;;;17.11;60.46;95459.81;10365165;28;20062;-23
2023/01/15 05:48:38;;;;;;;4.17;0.90;;;;;;;17.09;60.26;95459.84;10375589;28;20040;-23
2023/01/15 05:53:39;;;;;;;2.57;0.80;;;;;;;17.10;60.13;95455.63;10372465;28;20387;-22
2023/01/15 05:58:39;;;;;;;1.63;0.82;;;;;;;17.08;60.62;95465.75;10359288;28;20513;-23
2023/01/15 06:03:43;;;;;;;1.90;0.87;;;;;;;17.07;60.62;95453.16;10380744;28;20414;-23
2023/01/15 06:08:44;;;;;;;5.20;1.10;;;;;;;17.07;60.83;95491.09;10371406;28;20022;-23
2023/01/15 06:13:44;;;;;;;2.40;1.10;;;;;;;17.09;60.53;95481.78;10356712;28;20525;-23
2023/01/15 06:18:45;;;;;;;2.77;1.00;;;;;;;17.15;60.33;95477.47;10380510;28;20415;-23
2023/01/15 06:23:45;;;;;;;1.35;0.68;;;;;;;17.19;59.50;95476.56;10376112;28;20414;-23
2023/01/15 06:28:46;;;;;;;2.42;1.20;;;;;;;17.18;60.26;95464.78;10352418;28;20038;-23
2023/01/15 06:33:46;;;;;;;4.85;1.77;;;;;;;17.21;59.71;95484.13;10380542;28;20052;-23
2023/01/15 06:38:47;;;;;;;1.87;0.80;;;;;;;17.19;60.04;95473.19;10369776;28;20568;-23
2023/01/15 06:49:06;;;;;;;0.77;0.70;;;;;;;17.17;60.06;95495.16;10381381;28;20056;-23
2023/01/15 06:54:09;;;;;;;3.37;0.70;;;;;;;17.18;60.00;95509.47;10376929;28;20348;-23
2023/01/15 06:59:09;;;;;;;1.30;0.93;;;;;;;17.21;59.91;95532.16;10363100;28;20042;-23
2023/01/15 07:04:10;;;;;;;1.00;0.40;;;;;;;17.20;59.86;95527.97;10369718;28;20042;-23
2023/01/15 07:09:10;;;;;;;3.95;1.05;;;;;;;17.17;59.90;95533.91;10389804;28;20042;-23
2023/01/15 07:14:12;;;;;;;2.60;0.93;;;;;;;17.17;59.97;95544.00;10362439;28;20041;-23
2023/01/15 07:19:12;;;;;;;1.92;0.95;;;;;;;17.20;59.79;95545.66;10376396;28;20045;-23
2023/01/15 07:24:13;;;;;;;0.98;0.60;;;;;;;17.22;59.85;95546.47;10371892;28;20049;-23
2023/01/15 07:29:14;;;;;;;1.55;0.77;;;;;;;17.25;60.10;95586.91;10375140;28;20037;-23
2023/01/15 07:34:15;;;;;;;2.00;0.75;;;;;;;17.24;59.96;95635.84;10375682;28;20038;-23
2023/01/15 07:39:15;;;;;;;1.48;0.90;;;;;;;17.23;59.89;95655.22;10376611;28;20163;-23
2023/01/15 07:49:50;;;;;;;1.67;0.50;;;;;;;17.20;59.64;95705.00;10365577;28;20037;-23
2023/01/15 07:54:50;;;;;;;1.25;0.47;;;;;;;17.09;59.36;95716.94;10368210;28;20069;-23
2023/01/15 07:59:50;;;;;;;1.07;0.40;;;;;;;17.15;59.78;95739.63;10360586;28;20502;-23
2023/01/15 08:04:51;;;;;;;5.27;1.37;;;;;;;17.18;59.36;95742.13;10369489;28;20367;-23
2023/01/15 08:09:51;;;;;;;6.53;0.60;;;;;;;17.17;59.86;95750.56;10361433;28;20664;-24
2023/01/15 08:20:20;;;;;;;3.63;0.60;;;;;;;17.21;59.66;95758.09;10373248;28;20052;-23
2023/01/15 08:25:23;;;;;;;3.17;0.60;;;;;;;17.11;59.14;95775.91;10366855;28;20034;-24
2023/01/15 08:30:24;;;;;;;6.55;0.63;;;;;;;17.12;60.29;95775.06;10371579;28;20065;-23
2023/01/15 08:35:24;;;;;;;3.90;0.80;;;;;;;17.15;60.79;95772.53;10365928;28;20044;-23
2023/01/15 08:40:25;;;;;;;6.95;1.33;;;;;;;17.20;60.38;95780.88;10371519;28;20038;-23
2023/01/15 08:45:25;;;;;;;3.37;0.60;;;;;;;17.20;60.19;95801.09;10380914;28;20035;-22
2023/01/15 08:50:25;;;;;;;3.90;0.63;;;;;;;17.22;59.61;95839.88;10367600;28;20033;-23
2023/01/15 08:55:26;;;;;;;6.00;1.30;;;;;;;17.25;60.10;95855.03;10373110;28;20028;-23
2023/01/15 09:00:26;;;;;;;8.33;1.17;;;;;;;17.17;58.87;95874.50;10358686;28;20017;-22
2023/01/15 09:05:29;;;;;;;4.93;1.25;;;;;;;17.12;58.20;95873.69;10359468;28;20589;-23
2023/01/15 09:10:29;;;;;;;5.57;1.40;;;;;;;17.10;59.48;95878.78;10366358;28;20450;-23
2023/01/15 09:15:32;;;;;;;5.10;1.70;;;;;;;17.09;59.02;95893.94;10362998;28;20053;-23
2023/01/15 09:20:32;;;;;;;4.72;0.93;;;;;;;17.13;57.81;95893.06;10379703;28;20328;-23
2023/01/15 09:25:32;;;;;;;4.30;1.40;;;;;;;17.13;56.22;95885.47;10361581;28;20061;-23
2023/01/15 09:30:33;;;;;;;4.47;0.80;;;;;;;17.09;56.57;95909.13;10371009;28;20494;-23
2023/01/15 09:35:33;;;;;;;8.07;3.33;;;;;;;17.13;56.15;95909.09;10373500;28;20030;-23
2023/01/15 09:40:48;;;;;;;2.17;0.90;;;;;;;17.15;56.21;95920.03;10368699;28;20296;-23
2023/01/15 09:45:55;;;;;;;5.63;0.90;;;;;;;17.10;59.45;95938.63;10365585;28;20438;-23
2023/01/15 09:51:18;;;;;;;3.00;0.70;;;;;;;17.07;59.84;95957.16;10357359;28;20031;-23
2023/01/15 09:56:31;;;;;;;3.22;1.25;;;;;;;17.08;59.14;95963.09;10366352;28;20121;-23
2023/01/15 10:01:33;;;;;;;6.40;0.90;;;;;;;17.07;57.96;95979.09;10372708;28;20406;-23
2023/01/15 10:06:44;;;;;;;5.18;0.80;;;;;;;17.12;58.01;95974.84;10368688;28;20037;-23
2023/01/15 10:17:19;;;;;;;3.80;1.10;;;;;;;17.10;58.26;95990.03;10362287;28;20049;-23
2023/01/15 10:22:31;;;;;;;6.28;0.95;;;;;;;17.11;57.99;95999.31;10372370;28;20120;-23
2023/01/15 10:27:32;;;;;;;2.00;1.80;;;;;;;17.09;58.12;95995.09;10370692;28;20618;-24
2023/01/15 10:32:38;;;;;;;3.97;1.35;;;;;;;17.10;57.93;96006.91;10380162;28;20088;-23
2023/01/15 10:37:43;;;;;;;;;;;;;;;17.10;57.84;96027.13;10377652;28;20033;-23
2023/01/15 10:42:53;;;;;;;2.03;0.95;;;;;;;17.08;58.48;96028.84;10368497;28;19925;-23
2023/01/15 10:48:00;;;;;;;2.10;1.10;;;;;;;17.05;58.90;96037.25;10369769;28;20713;-22
2023/01/15 10:53:16;;;;;;;2.47;0.82;;;;;;;17.03;59.67;96043.19;10364626;28;20549;-23
2023/01/15 10:58:32;;;;;;;3.22;0.73;;;;;;;17.01;60.45;96052.47;10351671;28;20045;-23
2023/01/15 11:03:39;;;;;;;1.25;0.68;;;;;;;17.00;60.19;96061.72;10365910;28;20464;-23
2023/01/15 11:08:42;;;;;;;3.03;0.55;;;;;;;17.04;59.18;96052.44;10363982;28;20498;-23
2023/01/15 11:19:36;;;;;;;17.00;1.40;;;;;;;17.09;57.12;96055.78;10347207;28;20441;-23
2023/01/15 11:24:44;;;;;;;4.47;1.80;;;;;;;17.13;56.71;96052.38;10363956;28;20124;-23
2023/01/15 11:29:51;;;;;;;5.35;1.48;;;;;;;17.13;57.81;96068.41;10362591;28;20367;-23
2023/01/15 11:34:53;;;;;;;3.50;1.27;;;;;;;17.14;58.62;96069.28;10364308;28;20121;-23
2023/01/15 11:40:06;;;;;;;3.75;1.10;;;;;;;17.15;57.31;96081.88;10358476;28;20038;-23
2023/01/15 11:50:43;;;;;;;2.53;1.65;;;;;;;17.13;57.65;96073.47;10359666;28;20087;-23
2023/01/15 11:55:59;;;;;;;2.42;1.30;;;;;;;17.09;56.32;96081.91;10363731;28;20588;-23
2023/01/15 12:01:00;;;;;;;2.20;1.27;;;;;;;17.11;55.63;96081.91;10358769;28;20151;-23
2023/01/15 12:06:05;;;;;;;8.88;3.20;;;;;;;17.13;57.04;96068.41;10367516;28;20507;-23
2023/01/15 12:11:15;;;;;;;5.55;3.25;;;;;;;17.13;58.34;96078.53;10359069;28;20519;-23
2023/01/15 12:16:39;;;;;;;10.25;2.05;;;;;;;17.15;56.00;96070.94;10371263;28;20033;-23
2023/01/15 12:22:02;;;;;;;3.38;2.03;;;;;;;17.13;55.61;96082.75;10365079;28;20034;-23
2023/01/15 12:27:24;;;;;;;3.20;2.15;;;;;;;17.17;56.02;96092.00;10361981;28;20084;-23
2023/01/15 12:32:35;;;;;;;3.47;2.17;;;;;;;17.19;55.80;96092.84;10359796;28;20041;-23
2023/01/15 12:37:43;;;;;;;4.28;2.05;;;;;;;17.20;54.90;96091.97;10368230;28;20108;-23
2023/01/15 12:48:30;;;;;;;4.15;1.92;;;;;;;17.08;56.06;96097.09;10360377;28;20034;-23
2023/01/15 12:53:54;;;;;;;5.22;2.05;;;;;;;17.10;55.72;96092.88;10366763;28;20025;-24
2023/01/15 12:59:16;;;;;;;3.28;1.27;;;;;;;17.16;54.69;96105.50;10361970;28;20040;-23
2023/01/15 13:04:26;;;;;;;3.83;1.35;;;;;;;17.16;54.77;96110.56;10375723;28;20054;-23
2023/01/15 13:09:40;;;;;;;3.40;1.70;;;;;;;17.11;53.67;96102.13;10375114;28;20030;-23
2023/01/15 13:14:41;;;;;;;3.17;1.80;;;;;;;17.17;55.62;96119.81;10370632;28;20037;-23
2023/01/15 13:19:57;;;;;;;4.93;2.40;;;;;;;17.09;57.47;96131.66;10374658;28;20037;-23
2023/01/15 13:25:25;;;;;;;3.63;2.53;;;;;;;17.12;55.20;96142.63;10383355;28;20557;-23
2023/01/15 13:30:47;;;;;;;2.55;1.58;;;;;;;16.98;54.23;96144.34;10373881;28;20041;-23
2023/01/15 13:35:50;;;;;;;5.72;2.22;;;;;;;17.15;53.61;96162.00;10371884;28;20034;-23
2023/01/15 13:40:54;;;;;;;3.72;2.13;;;;;;;17.17;54.06;96166.19;10360027;28;20033;-23
2023/01/15 13:45:56;;;;;;;3.72;1.50;;;;;;;17.07;51.92;96173.84;10361626;28;20414;-23
2023/01/15 13:51:02;;;;;;;3.55;2.58;;;;;;;17.13;55.03;96182.22;10365052;28;20164;-23
2023/01/15 13:56:06;;;;;;;5.73;2.57;;;;;;;17.16;55.74;96174.63;10367995;28;20740;-23
2023/01/15 14:01:21;;;;;;;3.13;2.22;;;;;;;17.18;55.41;96192.31;10359885;28;20046;-23
2023/01/15 14:06:22;;;;;;;3.70;2.40;;;;;;;17.18;55.18;96192.31;10375188;28;20108;-23
2023/01/15 14:11:36;;;;;;;6.63;1.77;;;;;;;17.17;53.91;96200.75;10372286;28;20379;-23
2023/01/15 14:16:55;;;;;;;3.05;1.90;;;;;;;17.14;54.99;96196.56;10369473;28;20037;-23
2023/01/15 14:22:12;;;;;;;5.38;1.38;;;;;;;17.16;53.75;96199.91;10365683;28;20057;-23
2023/01/15 14:27:40;;;;;;;6.07;2.97;;;;;;;17.13;58.51;96205.00;10368974;28;20544;-23
2023/01/15 14:32:56;;;;;;;5.78;2.75;;;;;;;17.10;58.26;96192.38;10371622;28;20044;-23
2023/01/15 14:38:02;;;;;;;9.20;1.80;;;;;;;17.15;53.05;96207.53;10368116;28;20052;-23
2023/01/15 14:43:16;;;;;;;5.10;1.47;;;;;;;17.19;54.15;96204.13;10362699;28;20136;-23
2023/01/15 14:48:35;;;;;;;3.67;1.50;;;;;;;17.19;53.37;96199.06;10357526;28;20505;-23
2023/01/15 14:54:18;;;;;;;12.45;2.05;;;;;;;16.98;51.87;96199.16;10369729;28;20030;-22
2023/01/15 14:59:26;;;;;;;4.85;1.17;;;;;;;16.61;46.77;96207.63;10352442;28;20042;-23
2023/01/15 15:04:42;;;;;;;7.28;1.20;;;;;;;16.53;47.04;96209.31;10373668;28;20045;-23
2023/01/15 15:10:15;;;;;;;1.98;0.77;;;;;;;16.79;49.20;96215.16;10365638;28;20037;-23
2023/01/15 15:15:20;;;;;;;1.45;0.80;;;;;;;16.90;50.71;96210.97;10358330;28;20060;-23
2023/01/15 15:20:35;;;;;;;3.00;0.70;;;;;;;16.97;51.74;96212.59;10369323;28;20045;-23
2023/01/15 15:25:37;;;;;;;6.00;1.00;;;;;;;17.01;50.68;96210.09;10364489;28;20395;-23
2023/01/15 15:30:43;;;;;;;3.63;0.85;;;;;;;17.01;51.31;96209.25;10365456;28;20037;-23
2023/01/15 15:35:48;;;;;;;6.60;2.07;;;;;;;17.01;53.39;96212.63;10367676;28;20033;-23
2023/01/15 15:41:01;;;;;;;3.55;1.58;;;;;;;17.02;55.16;96213.44;10362661;28;20296;-23
2023/01/15 15:51:51;;;;;;;1.75;0.77;;;;;;;17.08;53.85;96209.22;10322448;28;20050;-24
2023/01/15 15:57:01;;;;;;;4.57;1.10;;;;;;;17.10;53.58;96209.22;10362999;28;20413;-23
2023/01/15 16:02:18;;;;;;;2.03;1.00;;;;;;;17.11;53.55;96186.47;10367249;28;20076;-23
2023/01/15 16:07:24;;;;;;;;;;;;;;;17.13;53.60;96194.03;10360455;28;20041;-23
2023/01/15 16:12:29;;;;;;;4.13;1.13;;;;;;;17.10;52.38;96178.88;10361515;28;20282;-23
2023/01/15 16:17:30;;;;;;;2.40;1.42;;;;;;;17.08;52.95;96158.63;10361415;28;20034;-22
2023/01/15 16:22:31;;;;;;;2.40;0.88;;;;;;;17.10;52.42;96148.53;10366563;28;20033;-23
2023/01/15 16:27:34;;;;;;;4.13;1.20;;;;;;;17.14;53.71;96132.50;10372686;28;20053;-24
2023/01/15 16:32:35;;;;;;;4.32;1.40;;;;;;;17.12;54.31;96126.59;10367266;28;20068;-23
2023/01/15 16:37:36;;;;;;;3.30;1.30;;;;;;;17.12;54.32;96124.06;10360536;28;20030;-23
2023/01/15 16:42:42;;;;;;;5.68;1.50;;;;;;;17.09;56.97;96124.06;10359568;28;20025;-23
2023/01/15 16:48:10;;;;;;;2.63;1.00;;;;;;;17.10;56.90;96133.34;10363570;28;20431;-24
2023/01/15 16:53:35;;;;;;;2.75;1.00;;;;;;;17.16;54.20;96123.22;10362172;28;20038;-23
2023/01/15 16:58:40;;;;;;;2.22;0.82;;;;;;;17.18;53.15;96111.38;10358658;28;20472;-23
2023/01/15 17:03:41;;;;;;;2.92;1.00;;;;;;;17.15;53.73;96106.34;10370547;28;20033;-23
2023/01/15 17:08:47;;;;;;;2.50;0.98;;;;;;;17.17;53.90;96117.31;10361969;28;20036;-23
2023/01/15 17:13:48;;;;;;;1.85;0.70;;;;;;;17.16;52.49;96113.09;10361390;28;20037;-23
2023/01/15 17:18:50;;;;;;;1.77;1.45;;;;;;;17.16;54.07;96118.16;10366120;28;20042;-23
2023/01/15 17:23:50;;;;;;;4.85;0.70;;;;;;;17.17;53.06;96118.13;10364966;28;20508;-23
2023/01/15 17:28:50;;;;;;;3.23;1.27;;;;;;;17.18;52.44;96113.91;10363626;28;20037;-23
2023/01/15 17:33:51;;;;;;;3.00;1.10;;;;;;;17.17;53.61;96112.25;10365963;28;20030;-23
2023/01/15 17:38:52;;;;;;;1.42;0.95;;;;;;;17.09;51.69;96126.59;10362719;28;20046;-23
2023/01/15 17:43:53;;;;;;;1.45;1.00;;;;;;;17.17;52.51;96127.41;10357605;28;20033;-23
2023/01/15 17:48:53;;;;;;;1.52;0.80;;;;;;;17.16;54.05;96115.63;10360744;28;20510;-22
2023/01/15 17:53:54;;;;;;;3.97;1.75;;;;;;;17.13;55.67;96111.41;10363622;28;20034;-23
2023/01/15 18:05:24;;;;;;;5.07;1.20;;;;;;;17.10;58.11;96103.00;10360803;28;20170;-23
2023/01/15 18:10:17;;;;;;;3.80;0.82;;;;;;;17.21;51.68;96089.44;10363648;28;20033;-24
2023/01/15 18:15:18;;;;;;;4.18;0.90;;;;;;;17.21;52.87;96091.13;10365267;28;20414;-23
2023/01/15 18:20:19;;;;;;;4.35;1.25;;;;;;;17.23;51.92;96094.50;10371740;28;20029;-23
2023/01/15 18:25:19;;;;;;;5.53;0.80;;;;;;;17.23;53.20;96094.50;10365274;28;20513;-24
2023/01/15 18:30:20;;;;;;;2.53;0.90;;;;;;;17.18;54.07;96088.63;10376717;28;20033;-23
2023/01/15 18:35:22;;;;;;;6.90;1.37;;;;;;;17.21;52.80;96089.44;10371128;28;20042;-23
2023/01/15 18:40:29;;;;;;;5.75;1.70;;;;;;;17.20;53.99;96084.38;10368106;28;20591;-23
2023/01/15 18:50:49;;;;;;;3.20;1.55;;;;;;;17.17;55.17;96085.25;10363965;28;20342;-23
2023/01/15 18:55:49;;;;;;;2.80;1.80;;;;;;;17.13;56.07;96070.94;10368318;28;20069;-23
2023/01/15 19:00:49;;;;;;;5.55;1.27;;;;;;;17.12;55.35;96063.34;10356378;28;20042;-24
2023/01/15 19:05:50;;;;;;;2.47;1.37;;;;;;;17.13;53.97;96048.19;10362100;28;20040;-23
2023/01/15 19:10:50;;;;;;;5.43;1.57;;;;;;;17.13;52.94;96044.81;10365268;28;20037;-24
2023/01/15 19:21:11;;;;;;;3.78;1.88;;;;;;;17.12;55.11;96026.28;10371607;28;20453;-23
2023/01/15 19:26:12;;;;;;;3.13;1.77;;;;;;;17.11;54.10;96039.78;10358836;28;20104;-24
2023/01/15 19:36:32;;;;;;;3.03;1.77;;;;;;;17.12;54.15;96022.88;10364031;28;20469;-23
2023/01/15 19:57:29;;;;;;;4.32;2.20;;;;;;;17.04;57.04;95991.75;10355417;28;20045;-23
2023/01/15 20:02:35;;;;;;;5.47;1.85;;;;;;;17.03;56.21;95975.75;10364297;28;20053;-23
2023/01/15 20:07:38;;;;;;;3.23;1.50;;;;;;;17.03;55.36;95955.53;10367061;28;20065;-23
2023/01/15 20:17:58;;;;;;;3.08;1.67;;;;;;;16.94;55.50;95934.50;10361699;28;20053;-23
2023/01/15 20:22:59;;;;;;;1.80;1.05;;;;;;;17.00;54.84;95939.53;10362098;28;20069;-23
2023/01/15 20:27:59;;;;;;;2.97;1.40;;;;;;;16.99;55.25;95932.81;10353116;28;20498;-23
2023/01/15 20:33:00;;;;;;;1.97;1.10;;;;;;;16.98;55.15;95921.84;10362355;28;20036;-23
2023/01/15 20:38:00;;;;;;;3.03;1.23;;;;;;;16.99;54.92;95922.69;10355873;28;20292;-23
2023/01/15 20:53:40;;;;;;;2.13;0.88;;;;;;;17.09;54.01;95869.47;10352768;28;20033;-23
2023/01/15 20:58:41;;;;;;;1.58;1.00;;;;;;;17.10;53.18;95862.75;10364667;28;20029;-23
2023/01/15 21:03:41;;;;;;;3.22;1.25;;;;;;;16.99;56.54;95859.47;10356021;28;20034;-23
2023/01/15 21:08:44;;;;;;;4.88;2.22;;;;;;;16.94;57.39;95846.03;10377179;28;20041;-23
2023/01/15 21:13:45;;;;;;;8.32;2.90;;;;;;;16.99;55.97;95836.72;10360653;28;20461;-23
2023/01/15 21:18:47;;;;;;;4.28;1.75;;;;;;;17.03;55.02;95824.03;10366596;28;20042;-23
2023/01/15 21:23:48;;;;;;;7.07;2.20;;;;;;;17.06;55.91;95818.94;10369475;28;20037;-23
2023/01/15 21:28:52;;;;;;;5.53;2.78;;;;;;;17.05;55.75;95811.38;10370203;28;20033;-24
2023/01/15 21:33:54;;;;;;;6.88;2.47;;;;;;;17.09;56.20;95815.56;10374047;28;20486;-23
2023/01/15 21:38:56;;;;;;;5.75;2.13;;;;;;;17.09;55.36;95813.03;10368648;28;20137;-23
2023/01/15 21:49:15;;;;;;;6.65;2.67;;;;;;;17.06;54.85;95787.78;10373424;28;20041;-23
2023/01/15 21:54:17;;;;;;;6.33;2.77;;;;;;;17.06;54.49;95772.59;10366384;28;20056;-24
2023/01/15 21:59:17;;;;;;;7.68;1.90;;;;;;;17.04;54.80;95759.13;10370900;28;20583;-23
2023/01/15 22:04:18;;;;;;;7.18;2.10;;;;;;;17.04;55.13;95754.06;10369615;28;20049;-23
2023/01/15 22:09:19;;;;;;;7.50;2.30;;;;;;;17.02;56.67;95746.50;10370382;28;20142;-23
2023/01/15 22:14:28;;;;;;;5.43;2.38;;;;;;;16.99;57.72;95745.69;10370150;28;20040;-23
2023/01/15 22:19:30;;;;;;;4.30;2.03;;;;;;;16.95;55.69;95729.72;10371006;28;20417;-23
2023/01/15 22:24:32;;;;;;;5.68;1.80;;;;;;;17.01;54.50;95716.19;10368504;28;20118;-23
2023/01/15 22:29:39;;;;;;;4.65;1.45;;;;;;;17.04;54.87;95713.59;10363991;28;20089;-24
2023/01/15 22:34:40;;;;;;;4.40;1.77;;;;;;;17.03;54.14;95711.94;10358941;28;20026;-23
2023/01/15 22:39:41;;;;;;;6.20;2.35;;;;;;;17.03;54.33;95694.25;10371120;28;20042;-23
2023/01/15 22:44:44;;;;;;;5.70;1.90;;;;;;;17.00;54.49;95684.16;10369682;28;20156;-23
2023/01/15 22:49:44;;;;;;;3.85;1.40;;;;;;;17.00;54.60;95674.88;10368925;28;20320;-23
2023/01/15 22:54:45;;;;;;;5.80;1.80;;;;;;;16.98;54.76;95674.06;10371123;28;20053;-23
2023/01/15 22:59:45;;;;;;;3.95;1.60;;;;;;;16.98;54.20;95663.13;10369415;28;20083;-25
2023/01/15 23:04:46;;;;;;;3.55;1.77;;;;;;;16.98;55.29;95653.00;10369463;28;20551;-26
2023/01/15 23:09:47;;;;;;;6.10;2.17;;;;;;;16.95;54.40;95638.72;10366657;28;20057;-25
2023/01/15 23:14:48;;;;;;;5.37;2.10;;;;;;;16.95;54.85;95642.91;10368621;28;20128;-26
2023/01/15 23:19:49;;;;;;;8.40;2.28;;;;;;;16.95;56.17;95633.66;10369626;28;20521;-24
2023/01/15 23:24:49;;;;;;;4.53;1.70;;;;;;;16.93;56.48;95626.94;10361840;28;20068;-25
2023/01/15 23:29:50;;;;;;;3.77;1.73;;;;;;;16.94;55.62;95605.84;10367584;28;20281;-25
2023/01/15 23:34:50;;;;;;;4.40;1.50;;;;;;;16.94;54.19;95608.38;10368696;28;20311;-25
2023/01/15 23:39:50;;;;;;;7.43;1.70;;;;;;;16.94;54.00;95605.84;10369194;28;20517;-25
2023/01/15 23:50:09;;;;;;;3.80;1.33;;;;;;;16.92;53.83;95582.28;10366376;28;20061;-26
2023/01/15 23:55:10;;;;;;;2.83;1.33;;;;;;;16.91;54.56;95575.56;10367767;28;20072;-25
